Time;durP1;ratioP1;P1;durP2;ratioP2;P2;SDS_P1;SDS_P2;PMS_P1;PMS_P2;Temp;Humidity;BMP_temperature;BMP_pressure;BME280_temperature;BME280_humidity;BME280_pressure;Samples;Min_cycle;Max_cycle;Signal;HPM_P1;HPM_P2
2021/10/01 00:01:25;;;;;;;;;;;19.00;99.90;;;;;;5072055;28;19916;-70
2021/10/01 00:03:51;;;;;;;;;;;19.00;99.90;;;;;;5071623;28;19909;-71
2021/10/01 00:06:19;;;;;;;;;;;19.10;99.90;;;;;;5072231;28;20015;-72
2021/10/01 00:08:45;;;;;;;;;;;19.00;99.90;;;;;;5070515;28;19921;-72
2021/10/01 00:11:12;;;;;;;;;;;19.00;99.90;;;;;;5071947;28;20011;-72
2021/10/01 00:13:39;;;;;;;;;;;19.10;99.90;;;;;;5071351;28;19920;-72
2021/10/01 00:16:06;;;;;;;;;;;19.20;99.90;;;;;;5071291;28;19935;-72
2021/10/01 00:18:32;;;;;;;;;;;19.20;99.90;;;;;;5071558;28;20428;-70
2021/10/01 00:20:59;;;;;;;;;;;19.40;99.90;;;;;;5071015;28;20291;-73
2021/10/01 00:23:26;;;;;;;;;;;19.50;99.90;;;;;;5063130;28;20329;-71
2021/10/01 00:25:53;;;;;;;;;;;19.70;99.90;;;;;;5071585;28;19909;-71
2021/10/01 00:28:19;;;;;;;;;;;19.80;99.90;;;;;;5071923;28;20256;-69
2021/10/01 00:30:46;;;;;;;;;;;20.00;99.90;;;;;;5071948;28;19909;-71
2021/10/01 00:33:12;;;;;;;;;;;20.20;99.90;;;;;;5069924;28;19952;-72
2021/10/01 00:35:39;;;;;;;;;;;20.30;99.90;;;;;;5070701;28;19920;-71
2021/10/01 00:38:06;;;;;;;;;;;20.40;99.90;;;;;;5071070;28;20492;-72
2021/10/01 00:40:33;;;;;;;;;;;20.50;99.90;;;;;;5103460;28;19966;-71
2021/10/01 00:42:59;;;;;;;;;;;20.60;99.90;;;;;;5075362;28;19931;-70
2021/10/01 00:45:27;;;;;;;;;;;20.60;99.90;;;;;;5075591;28;20348;-70
2021/10/01 00:47:54;;;;;;;;;;;20.80;99.90;;;;;;5074832;28;20000;-71
2021/10/01 00:50:21;;;;;;;;;;;21.00;99.90;;;;;;5074923;28;20394;-70
2021/10/01 00:52:48;;;;;;;;;;;21.30;99.90;;;;;;5074678;28;19913;-70
2021/10/01 00:55:15;;;;;;;;;;;21.30;99.90;;;;;;5075112;28;19966;-71
2021/10/01 00:57:42;;;;;;;;;;;21.30;99.90;;;;;;5073862;28;19913;-71
2021/10/01 01:00:19;;;;;;;;;;;21.30;99.90;;;;;;5074112;28;19912;-71
2021/10/01 01:02:46;;;;;;;;;;;21.00;99.90;;;;;;5072110;28;20348;-69
2021/10/01 01:05:12;;;;;;;;;;;21.10;99.90;;;;;;5078284;28;19908;-70
2021/10/01 01:07:39;;;;;;;;;;;21.10;99.90;;;;;;5076356;28;20026;-73
2021/10/01 01:10:24;;;;;;;;;;;21.10;99.90;;;;;;5073720;28;20335;-70
2021/10/01 01:12:57;;;;;;;;;;;21.20;99.90;;;;;;5074948;28;19913;-71
2021/10/01 01:15:28;;;;;;;;;;;21.20;99.90;;;;;;5073966;28;19920;-71
2021/10/01 01:18:01;;;;;;;;;;;21.30;99.60;;;;;;5074543;28;19913;-71
2021/10/01 01:20:39;;;;;;;;;;;21.40;99.70;;;;;;5073643;28;20003;-71
2021/10/01 01:23:20;;;;;;;;;;;21.50;99.70;;;;;;5073719;28;20101;-72
2021/10/01 01:25:56;;;;;;;;;;;21.50;99.90;;;;;;5071923;28;19912;-71
2021/10/01 01:28:24;;;;;;;;;;;21.90;99.80;;;;;;5072681;28;19935;-71
2021/10/01 01:30:51;;;;;;;;;;;22.10;99.90;;;;;;5072942;28;20395;-71
2021/10/01 01:33:22;;;;;;;;;;;22.00;99.20;;;;;;5072898;28;20274;-71
2021/10/01 01:35:51;;;;;;;;;;;22.00;99.30;;;;;;5074316;28;19912;-70
2021/10/01 01:38:22;;;;;;;;;;;22.00;98.90;;;;;;5074259;28;19995;-71
2021/10/01 01:40:50;;;;;;;;;;;22.10;99.00;;;;;;5073722;28;19916;-71
2021/10/01 01:43:17;;;;;;;;;;;22.30;97.90;;;;;;5069863;28;20321;-72
2021/10/01 01:45:44;;;;;;;;;;;22.50;96.20;;;;;;5072700;28;19969;-71
2021/10/01 01:48:12;;;;;;;;;;;22.50;96.70;;;;;;5072851;28;20443;-70
2021/10/01 01:50:39;;;;;;;;;;;22.60;96.20;;;;;;5072786;28;19920;-70
2021/10/01 01:53:07;;;;;;;;;;;22.80;95.60;;;;;;5073111;28;19922;-71
2021/10/01 01:55:33;;;;;;;;;;;22.80;96.60;;;;;;5073005;28;19912;-71
2021/10/01 01:58:01;;;;;;;;;;;22.70;96.70;;;;;;5073628;28;19913;-71
2021/10/01 02:00:30;;;;;;;;;;;22.70;96.30;;;;;;5073495;28;19997;-71
2021/10/01 02:02:58;;;;;;;;;;;22.70;96.70;;;;;;5072816;28;19919;-71
2021/10/01 02:05:25;;;;;;;;;;;22.80;96.90;;;;;;5072169;28;19993;-69
2021/10/01 02:07:54;;;;;;;;;;;22.90;96.50;;;;;;5071048;28;20315;-69
2021/10/01 02:10:21;;;;;;;;;;;22.80;96.00;;;;;;5072610;28;19916;-70
2021/10/01 02:12:50;;;;;;;;;;;22.90;96.60;;;;;;5054160;28;20303;-68
2021/10/01 02:15:17;;;;;;;;;;;22.80;97.10;;;;;;5072257;28;19912;-68
2021/10/01 02:17:46;;;;;;;;;;;22.80;97.40;;;;;;5071437;28;20393;-69
2021/10/01 02:20:14;;;;;;;;;;;22.80;98.60;;;;;;5073102;28;19912;-68
2021/10/01 02:22:40;;;;;;;;;;;22.70;98.20;;;;;;5063488;28;20011;-68
2021/10/01 02:25:55;;;;;;;;;;;22.60;98.10;;;;;;5071834;28;19916;-70
2021/10/01 02:27:55;;;;;;;;;;;22.50;99.10;;;;;;5070942;28;19926;-71
2021/10/01 02:30:22;;;;;;;;;;;22.40;98.40;;;;;;5070852;28;19942;-69
2021/10/01 02:32:52;;;;;;;;;;;22.40;98.70;;;;;;5073437;28;20304;-71
2021/10/01 02:35:19;;;;;;;;;;;22.60;98.90;;;;;;5073430;28;20046;-71
2021/10/01 02:37:45;;;;;;;;;;;22.70;98.40;;;;;;5072969;28;19909;-71
2021/10/01 02:40:13;;;;;;;;;;;22.70;98.30;;;;;;5074357;28;19912;-71
2021/10/01 02:42:40;;;;;;;;;;;22.50;98.80;;;;;;5073730;28;19932;-71
2021/10/01 02:45:08;;;;;;;;;;;22.60;98.30;;;;;;5084079;28;19916;-72
2021/10/01 02:47:36;;;;;;;;;;;22.60;97.40;;;;;;5080253;28;20018;-72
2021/10/01 02:50:07;;;;;;;;;;;22.50;97.60;;;;;;5073105;28;20315;-72
2021/10/01 02:52:40;;;;;;;;;;;22.50;97.70;;;;;;5072998;28;20338;-72
2021/10/01 02:55:25;;;;;;;;;;;22.40;98.10;;;;;;5071484;28;19936;-71
2021/10/01 02:58:07;;;;;;;;;;;22.50;98.50;;;;;;5072178;28;19962;-72
2021/10/01 03:00:34;;;;;;;;;;;22.40;98.70;;;;;;5069998;28;20275;-71
2021/10/01 03:03:03;;;;;;;;;;;22.50;98.30;;;;;;5072339;28;19961;-72
2021/10/01 03:05:30;;;;;;;;;;;22.40;98.90;;;;;;5070379;28;19961;-72
2021/10/01 03:07:58;;;;;;;;;;;22.40;98.20;;;;;;5072613;28;19920;-70
2021/10/01 03:10:25;;;;;;;;;;;22.30;98.20;;;;;;5072277;28;19938;-71
2021/10/01 03:12:53;;;;;;;;;;;22.30;98.00;;;;;;5071709;28;20351;-70
2021/10/01 03:15:20;;;;;;;;;;;22.30;98.40;;;;;;5072115;28;19923;-72
2021/10/01 03:17:47;;;;;;;;;;;22.20;98.90;;;;;;5072001;28;19928;-71
2021/10/01 03:20:15;;;;;;;;;;;22.20;98.80;;;;;;5071923;28;19912;-71
2021/10/01 03:22:42;;;;;;;;;;;22.10;99.30;;;;;;5072084;28;20252;-70
2021/10/01 03:25:11;;;;;;;;;;;21.90;99.70;;;;;;5072466;28;19916;-70
2021/10/01 03:27:38;;;;;;;;;;;21.70;99.90;;;;;;5072045;28;19923;-70
2021/10/01 03:30:07;;;;;;;;;;;21.70;99.90;;;;;;5065676;28;20290;-69
2021/10/01 03:32:33;;;;;;;;;;;21.60;99.90;;;;;;5063692;28;19912;-70
2021/10/01 03:35:04;;;;;;;;;;;21.70;99.90;;;;;;5071692;28;19962;-69
2021/10/01 03:37:32;;;;;;;;;;;21.70;99.90;;;;;;5071482;28;19935;-69
2021/10/01 03:40:00;;;;;;;;;;;21.60;99.90;;;;;;5070611;28;20279;-71
2021/10/01 03:42:27;;;;;;;;;;;21.50;99.90;;;;;;5071474;28;19919;-69
2021/10/01 03:44:54;;;;;;;;;;;21.40;99.90;;;;;;5067214;28;19999;-70
2021/10/01 03:47:21;;;;;;;;;;;21.40;99.90;;;;;;5070342;28;19955;-69
2021/10/01 03:49:47;;;;;;;;;;;21.20;99.90;;;;;;5071675;28;19916;-69
2021/10/01 03:52:14;;;;;;;;;;;21.10;99.90;;;;;;5071885;28;20355;-69
2021/10/01 03:54:44;;;;;;;;;;;21.00;99.90;;;;;;5070758;28;19974;-69
2021/10/01 03:57:11;;;;;;;;;;;21.20;99.90;;;;;;5071741;28;20382;-69
2021/10/01 03:59:38;;;;;;;;;;;21.30;99.90;;;;;;5068438;28;20378;-69
2021/10/01 04:02:04;;;;;;;;;;;21.20;99.90;;;;;;5071404;28;20002;-69
2021/10/01 04:04:31;;;;;;;;;;;21.20;99.90;;;;;;5071476;28;19968;-70
2021/10/01 04:06:58;;;;;;;;;;;21.20;99.90;;;;;;5072215;28;20373;-69
2021/10/01 04:09:25;;;;;;;;;;;21.20;99.90;;;;;;5071578;28;19921;-69
2021/10/01 04:11:53;;;;;;;;;;;21.30;99.70;;;;;;5071705;28;19912;-70
2021/10/01 04:14:21;;;;;;;;;;;21.30;99.10;;;;;;5072269;28;19917;-71
2021/10/01 04:16:48;;;;;;;;;;;21.30;98.90;;;;;;5073257;28;20055;-68
2021/10/01 04:19:14;;;;;;;;;;;21.30;99.20;;;;;;5074699;28;19917;-69
2021/10/01 04:21:41;;;;;;;;;;;21.30;98.50;;;;;;5073318;28;19990;-69
2021/10/01 04:24:08;;;;;;;;;;;21.20;98.80;;;;;;5075333;28;20290;-70
2021/10/01 04:26:34;;;;;;;;;;;21.10;98.70;;;;;;5075762;28;19920;-70
2021/10/01 04:29:01;;;;;;;;;;;21.10;99.10;;;;;;5074885;28;20302;-70
2021/10/01 04:31:28;;;;;;;;;;;21.10;99.20;;;;;;5076213;28;19909;-71
2021/10/01 04:33:56;;;;;;;;;;;21.10;99.40;;;;;;5075228;28;19977;-70
2021/10/01 04:36:26;;;;;;;;;;;21.10;99.60;;;;;;5075088;28;19923;-71
2021/10/01 04:38:53;;;;;;;;;;;21.20;99.90;;;;;;5074729;28;19916;-70
2021/10/01 04:41:21;;;;;;;;;;;21.10;99.90;;;;;;5075290;28;19992;-70
2021/10/01 04:43:48;;;;;;;;;;;21.00;99.90;;;;;;5074942;28;19951;-69
2021/10/01 04:46:15;;;;;;;;;;;20.80;99.90;;;;;;5075465;28;20389;-69
2021/10/01 04:48:41;;;;;;;;;;;20.70;99.90;;;;;;5075003;28;19932;-70
2021/10/01 04:51:08;;;;;;;;;;;20.70;99.90;;;;;;5075003;28;20371;-71
2021/10/01 04:53:35;;;;;;;;;;;20.60;99.90;;;;;;5074866;28;19992;-71
2021/10/01 04:56:01;;;;;;;;;;;20.70;99.90;;;;;;5075500;28;20307;-71
2021/10/01 04:58:28;;;;;;;;;;;20.60;99.90;;;;;;5072992;28;19913;-70
2021/10/01 05:00:55;;;;;;;;;;;20.70;99.90;;;;;;5074940;28;19912;-71
2021/10/01 05:03:22;;;;;;;;;;;20.60;99.90;;;;;;5074033;28;19916;-71
2021/10/01 05:05:48;;;;;;;;;;;20.50;99.90;;;;;;5074840;28;19970;-71
2021/10/01 05:08:15;;;;;;;;;;;20.40;99.90;;;;;;5074305;28;19974;-71
2021/10/01 05:10:41;;;;;;;;;;;20.30;99.90;;;;;;5073387;28;19989;-71
2021/10/01 05:13:08;;;;;;;;;;;20.10;99.90;;;;;;5074000;28;20616;-70
2021/10/01 05:15:35;;;;;;;;;;;20.10;99.90;;;;;;5073791;28;19920;-71
2021/10/01 05:18:02;;;;;;;;;;;20.10;99.90;;;;;;5074585;28;20061;-71
2021/10/01 05:20:28;;;;;;;;;;;20.10;99.90;;;;;;5073924;28;19913;-69
2021/10/01 05:22:55;;;;;;;;;;;20.20;99.90;;;;;;5073801;28;20007;-71
2021/10/01 05:25:22;;;;;;;;;;;20.20;99.90;;;;;;5073272;28;19924;-71
2021/10/01 05:27:48;;;;;;;;;;;20.10;99.90;;;;;;5071960;28;19935;-70
2021/10/01 05:30:15;;;;;;;;;;;20.00;99.90;;;;;;5073590;28;19913;-70
2021/10/01 05:32:42;;;;;;;;;;;19.80;99.90;;;;;;5073521;28;19964;-69
2021/10/01 05:35:09;;;;;;;;;;;19.80;99.90;;;;;;5069174;28;19913;-70
2021/10/01 05:37:35;;;;;;;;;;;19.90;99.90;;;;;;5074916;28;19909;-69
2021/10/01 05:40:02;;;;;;;;;;;19.90;99.90;;;;;;5073794;28;20001;-68
2021/10/01 05:42:29;;;;;;;;;;;19.90;99.90;;;;;;5072859;28;20418;-69
2021/10/01 05:44:55;;;;;;;;;;;19.90;99.90;;;;;;5074277;28;19908;-69
2021/10/01 05:47:22;;;;;;;;;;;19.90;99.90;;;;;;5074394;28;19932;-71
2021/10/01 05:49:49;;;;;;;;;;;19.90;99.90;;;;;;5075459;28;20015;-71
2021/10/01 05:52:37;;;;;;;;;;;19.70;99.90;;;;;;5077837;28;19916;-69
2021/10/01 05:55:04;;;;;;;;;;;19.70;99.90;;;;;;5079692;28;19916;-70
2021/10/01 05:57:31;;;;;;;;;;;19.70;99.90;;;;;;5072317;28;20016;-69
2021/10/01 05:59:58;;;;;;;;;;;19.60;99.90;;;;;;5071469;28;19917;-69
2021/10/01 06:02:28;;;;;;;;;;;19.70;99.90;;;;;;5071303;28;19991;-70
2021/10/01 06:04:55;;;;;;;;;;;19.70;99.90;;;;;;5073812;28;20351;-71
2021/10/01 06:07:22;;;;;;;;;;;19.60;99.90;;;;;;5070199;28;20260;-72
2021/10/01 06:09:49;;;;;;;;;;;19.60;99.90;;;;;;5072792;28;19917;-71
2021/10/01 06:12:16;;;;;;;;;;;19.50;99.90;;;;;;5073783;28;20255;-71
2021/10/01 06:14:43;;;;;;;;;;;19.60;99.90;;;;;;5072578;28;19917;-70
2021/10/01 06:17:12;;;;;;;;;;;19.60;99.90;;;;;;5071945;28;20299;-70
2021/10/01 06:19:41;;;;;;;;;;;19.50;99.90;;;;;;5073390;28;20359;-69
2021/10/01 06:22:08;;;;;;;;;;;19.60;99.90;;;;;;5071713;28;19965;-70
2021/10/01 06:24:35;;;;;;;;;;;19.60;99.90;;;;;;5073364;28;19920;-69
2021/10/01 06:27:02;;;;;;;;;;;19.60;99.90;;;;;;5071612;28;20367;-70
2021/10/01 06:29:29;;;;;;;;;;;19.60;99.90;;;;;;5071947;28;19921;-69
2021/10/01 06:31:56;;;;;;;;;;;19.50;99.90;;;;;;5091889;28;20013;-71
2021/10/01 06:34:22;;;;;;;;;;;19.60;99.90;;;;;;5055359;28;19921;-71
2021/10/01 06:36:49;;;;;;;;;;;19.60;99.90;;;;;;5073250;28;19920;-71
2021/10/01 06:39:16;;;;;;;;;;;19.70;99.90;;;;;;5073308;28;19935;-69
2021/10/01 06:41:43;;;;;;;;;;;19.60;99.90;;;;;;5072318;28;19923;-70
2021/10/01 06:44:11;;;;;;;;;;;19.70;99.90;;;;;;5072044;28;20367;-70
2021/10/01 06:46:51;;;;;;;;;;;19.60;99.90;;;;;;5072020;28;20443;-72
2021/10/01 07:24:15;;;;;;;;;;;15.70;99.90;;;;;;5071991;28;19913;-72
2021/10/01 08:21:28;;;;;;;;;;;16.10;99.90;;;;;;5058580;28;19942;-70
2021/10/01 08:24:01;;;;;;;;;;;16.20;99.90;;;;;;5069205;28;19943;-71
2021/10/01 08:26:29;;;;;;;;;;;16.30;99.90;;;;;;5070145;28;20355;-70
2021/10/01 08:28:57;;;;;;;;;;;16.20;99.90;;;;;;5068847;28;19924;-72
2021/10/01 08:31:26;;;;;;;;;;;16.30;99.90;;;;;;5070121;28;20003;-70
2021/10/01 08:33:53;;;;;;;;;;;16.30;99.90;;;;;;5069636;28;20575;-69
2021/10/01 08:36:20;;;;;;;;;;;16.50;99.90;;;;;;5069469;28;20367;-71
2021/10/01 08:38:47;;;;;;;;;;;16.50;99.90;;;;;;5069608;28;19909;-71
2021/10/01 08:41:13;;;;;;;;;;;16.40;99.90;;;;;;5069683;28;19909;-70
2021/10/01 08:43:44;;;;;;;;;;;16.50;99.90;;;;;;5069101;28;19931;-71
2021/10/01 08:46:12;;;;;;;;;;;16.50;99.90;;;;;;5069528;28;19917;-71
2021/10/01 08:48:38;;;;;;;;;;;16.50;99.90;;;;;;5069357;28;19946;-70
2021/10/01 08:51:06;;;;;;;;;;;16.50;99.90;;;;;;5069039;28;19944;-70
2021/10/01 08:53:34;;;;;;;;;;;16.40;99.90;;;;;;5069233;28;19916;-71
2021/10/01 08:56:01;;;;;;;;;;;16.40;99.90;;;;;;5069732;28;19913;-71
2021/10/01 08:58:29;;;;;;;;;;;16.40;99.90;;;;;;5069440;28;19954;-70
2021/10/01 09:00:57;;;;;;;;;;;16.40;99.90;;;;;;5069220;28;19912;-71
2021/10/01 09:03:24;;;;;;;;;;;16.30;99.90;;;;;;5072486;28;19916;-72
2021/10/01 09:05:50;;;;;;;;;;;16.30;99.90;;;;;;5072754;28;20330;-70
2021/10/01 09:08:19;;;;;;;;;;;16.30;99.90;;;;;;5075089;28;19916;-69
2021/10/01 09:10:58;;;;;;;;;;;16.30;99.90;;;;;;5074830;28;19919;-70
2021/10/01 09:13:26;;;;;;;;;;;16.20;99.90;;;;;;5074632;28;19916;-70
2021/10/01 09:15:59;;;;;;;;;;;16.30;99.90;;;;;;5075235;28;19931;-70
2021/10/01 09:18:30;;;;;;;;;;;16.30;99.90;;;;;;5074914;28;19944;-70
2021/10/01 09:21:23;;;;;;;;;;;16.40;99.90;;;;;;5075028;28;19909;-71
2021/10/01 09:23:58;;;;;;;;;;;16.50;99.90;;;;;;5072207;28;19915;-69
2021/10/01 09:26:28;;;;;;;;;;;16.70;99.90;;;;;;5075025;28;19915;-69
2021/10/01 09:28:54;;;;;;;;;;;16.70;99.90;;;;;;5074158;28;19916;-69
2021/10/01 09:31:30;;;;;;;;;;;16.80;99.90;;;;;;5074745;28;20377;-72
2021/10/01 09:33:57;;;;;;;;;;;16.80;99.90;;;;;;5074764;28;19909;-70
2021/10/01 09:36:26;;;;;;;;;;;16.80;99.90;;;;;;5074607;28;20375;-72
2021/10/01 09:38:53;;;;;;;;;;;16.70;99.90;;;;;;5074804;28;19908;-71
2021/10/01 09:41:28;;;;;;;;;;;16.70;99.90;;;;;;5074504;28;19998;-70
2021/10/01 09:43:59;;;;;;;;;;;16.80;99.90;;;;;;5074105;28;19908;-71
2021/10/01 09:46:33;;;;;;;;;;;16.80;99.90;;;;;;5074242;28;19925;-72
2021/10/01 09:49:01;;;;;;;;;;;16.80;99.90;;;;;;5074437;28;19923;-72
2021/10/01 09:51:28;;;;;;;;;;;16.70;99.90;;;;;;5074134;28;19985;-71
2021/10/01 09:53:55;;;;;;;;;;;16.60;99.90;;;;;;5074040;28;20371;-72
2021/10/01 09:56:32;;;;;;;;;;;16.60;99.90;;;;;;5074289;28;19912;-71
2021/10/01 09:59:14;;;;;;;;;;;16.60;99.90;;;;;;5073830;28;19962;-72
2021/10/01 10:01:59;;;;;;;;;;;16.60;99.90;;;;;;5074078;28;19962;-71
2021/10/01 10:04:29;;;;;;;;;;;16.60;99.90;;;;;;5070779;28;19938;-71
2021/10/01 10:06:55;;;;;;;;;;;16.60;99.90;;;;;;5072192;28;20331;-70
2021/10/01 10:09:32;;;;;;;;;;;16.60;99.90;;;;;;5071961;28;19920;-72
2021/10/01 10:12:00;;;;;;;;;;;16.60;99.90;;;;;;5071878;28;19973;-71
2021/10/01 10:14:27;;;;;;;;;;;16.60;99.90;;;;;;5071139;28;19944;-70
2021/10/01 10:16:57;;;;;;;;;;;16.50;99.90;;;;;;5071896;28;19908;-72
2021/10/01 10:19:24;;;;;;;;;;;16.50;99.90;;;;;;5071780;28;19955;-71
2021/10/01 10:21:51;;;;;;;;;;;16.40;99.90;;;;;;5071559;28;19920;-72
2021/10/01 10:24:17;;;;;;;;;;;16.50;99.90;;;;;;5071979;28;19908;-72
2021/10/01 10:26:44;;;;;;;;;;;16.50;99.90;;;;;;5071982;28;19909;-72
2021/10/01 10:29:12;;;;;;;;;;;16.50;99.90;;;;;;5072562;28;20011;-71
2021/10/01 10:31:40;;;;;;;;;;;16.50;99.90;;;;;;5073402;28;19916;-71
2021/10/01 10:34:27;;;;;;;;;;;16.50;99.90;;;;;;5072373;28;19955;-70
2021/10/01 10:37:01;;;;;;;;;;;16.50;99.90;;;;;;5071767;28;20355;-72
2021/10/01 10:39:36;;;;;;;;;;;16.60;99.90;;;;;;5071858;28;19913;-72
2021/10/01 10:42:03;;;;;;;;;;;16.60;99.90;;;;;;5071525;28;19961;-71
2021/10/01 10:44:43;;;;;;;;;;;16.60;99.90;;;;;;5071288;28;20383;-71
2021/10/01 10:47:11;;;;;;;;;;;16.60;99.90;;;;;;5071247;28;19947;-72
2021/10/01 10:49:38;;;;;;;;;;;16.60;99.90;;;;;;5071261;28;19923;-72
2021/10/01 10:52:16;;;;;;;;;;;16.50;99.90;;;;;;5071501;28;19920;-72
2021/10/01 10:54:50;;;;;;;;;;;16.50;99.90;;;;;;5071559;28;19991;-72
2021/10/01 10:57:16;;;;;;;;;;;16.50;99.90;;;;;;5070991;28;19912;-72
2021/10/01 10:59:44;;;;;;;;;;;16.50;99.90;;;;;;5071118;28;20375;-71
2021/10/01 11:02:25;;;;;;;;;;;16.40;99.90;;;;;;5071509;28;19919;-72
2021/10/01 11:05:12;;;;;;;;;;;16.50;99.90;;;;;;5071600;28;19924;-72
2021/10/01 11:07:48;;;;;;;;;;;16.40;99.90;;;;;;5070858;28;19924;-72
2021/10/01 11:10:33;;;;;;;;;;;16.40;99.90;;;;;;5070830;28;19909;-72
2021/10/01 11:13:35;;;;;;;;;;;16.40;99.90;;;;;;5071213;28;20373;-72
2021/10/01 11:16:08;;;;;;;;;;;16.40;99.90;;;;;;5028879;28;19917;-71
2021/10/01 11:18:35;;;;;;;;;;;16.50;99.90;;;;;;5064185;28;19919;-72
2021/10/01 11:21:21;;;;;;;;;;;16.50;99.90;;;;;;5070964;28;19952;-73
2021/10/01 11:24:00;;;;;;;;;;;16.60;99.90;;;;;;5070368;28;19915;-71
2021/10/01 11:26:36;;;;;;;;;;;16.50;99.90;;;;;;5070227;28;19999;-72
2021/10/01 11:29:23;;;;;;;;;;;16.50;99.90;;;;;;5070694;28;19970;-72
2021/10/01 11:31:51;;;;;;;;;;;16.40;99.90;;;;;;5070645;28;19919;-72
2021/10/01 11:34:41;;;;;;;;;;;16.40;99.90;;;;;;5070822;28;19908;-73
2021/10/01 11:37:23;;;;;;;;;;;16.30;99.90;;;;;;5070481;28;20019;-72
2021/10/01 11:39:50;;;;;;;;;;;16.40;99.90;;;;;;5070552;28;19909;-71
2021/10/01 11:42:39;;;;;;;;;;;16.40;99.90;;;;;;5070597;28;19908;-72
2021/10/01 11:45:08;;;;;;;;;;;16.40;99.90;;;;;;5070582;28;20302;-72
2021/10/01 11:47:35;;;;;;;;;;;16.40;99.90;;;;;;5070128;28;19924;-72
2021/10/01 11:50:02;;;;;;;;;;;16.40;99.90;;;;;;5070317;28;19908;-72
2021/10/01 11:52:29;;;;;;;;;;;16.50;99.90;;;;;;5069360;28;19938;-71
2021/10/01 11:54:58;;;;;;;;;;;16.50;99.90;;;;;;5068904;28;19923;-71
2021/10/01 11:57:46;;;;;;;;;;;16.50;99.90;;;;;;5069490;28;20280;-70
2021/10/01 12:00:14;;;;;;;;;;;16.40;99.90;;;;;;5070382;28;19916;-71
2021/10/01 12:02:42;;;;;;;;;;;16.40;99.90;;;;;;5070451;28;20363;-70
2021/10/01 12:05:21;;;;;;;;;;;16.40;99.90;;;;;;5070723;28;19912;-71
2021/10/01 12:07:49;;;;;;;;;;;16.40;99.90;;;;;;5071268;28;20371;-71
2021/10/01 12:10:17;;;;;;;;;;;16.40;99.90;;;;;;5069928;28;19915;-71
2021/10/01 12:13:02;;;;;;;;;;;16.40;99.90;;;;;;5070189;28;19909;-72
2021/10/01 12:15:46;;;;;;;;;;;16.30;99.90;;;;;;5070384;28;20248;-72
2021/10/01 12:18:27;;;;;;;;;;;16.30;99.90;;;;;;5070200;28;20305;-71
2021/10/01 12:20:55;;;;;;;;;;;16.30;99.90;;;;;;5070220;28;19912;-71
2021/10/01 12:23:24;;;;;;;;;;;16.30;99.90;;;;;;5069731;28;19913;-72
2021/10/01 12:25:51;;;;;;;;;;;16.20;99.90;;;;;;5070001;28;19912;-71
2021/10/01 12:28:23;;;;;;;;;;;16.20;99.90;;;;;;5070114;28;20338;-71
2021/10/01 12:31:00;;;;;;;;;;;16.20;99.90;;;;;;5070179;28;19951;-72
2021/10/01 12:33:27;;;;;;;;;;;16.30;99.90;;;;;;5070029;28;19997;-72
2021/10/01 12:35:54;;;;;;;;;;;16.30;99.90;;;;;;5069764;28;20664;-72
2021/10/01 12:38:21;;;;;;;;;;;16.30;99.90;;;;;;5073747;28;19947;-71
2021/10/01 12:41:07;;;;;;;;;;;16.40;99.90;;;;;;5073987;28;19962;-69
2021/10/01 12:43:47;;;;;;;;;;;16.40;99.90;;;;;;5073807;28;20060;-72
2021/10/01 12:46:32;;;;;;;;;;;16.50;99.90;;;;;;5073681;28;19920;-71
2021/10/01 12:49:18;;;;;;;;;;;16.40;99.90;;;;;;5073539;28;19962;-72
2021/10/01 12:52:03;;;;;;;;;;;16.40;99.90;;;;;;5073737;28;19915;-72
2021/10/01 12:54:32;;;;;;;;;;;16.30;99.90;;;;;;5073764;28;19912;-71
2021/10/01 12:57:09;;;;;;;;;;;16.40;99.90;;;;;;5073690;28;19908;-71
2021/10/01 12:59:39;;;;;;;;;;;16.40;99.90;;;;;;5073594;28;19954;-70
2021/10/01 13:02:13;;;;;;;;;;;16.30;99.90;;;;;;5073401;28;19950;-69
2021/10/01 13:04:52;;;;;;;;;;;16.40;99.90;;;;;;5073819;28;20430;-70
2021/10/01 13:07:23;;;;;;;;;;;16.40;99.90;;;;;;5073522;28;20368;-71
2021/10/01 13:09:54;;;;;;;;;;;16.30;99.90;;;;;;5073324;28;19993;-72
2021/10/01 13:12:50;;;;;;;;;;;16.40;99.90;;;;;;5073327;28;19909;-71
2021/10/01 13:15:18;;;;;;;;;;;16.40;99.90;;;;;;5063880;28;19912;-71
2021/10/01 13:17:58;;;;;;;;;;;16.40;99.90;;;;;;5073389;28;19912;-72
2021/10/01 13:20:26;;;;;;;;;;;16.40;99.90;;;;;;5073342;28;19912;-72
2021/10/01 13:23:03;;;;;;;;;;;16.50;99.90;;;;;;5071923;28;19908;-72
2021/10/01 13:25:36;;;;;;;;;;;16.50;99.90;;;;;;5073329;28;19916;-71
2021/10/01 13:28:04;;;;;;;;;;;16.50;99.90;;;;;;5071552;28;20355;-71
2021/10/01 13:30:31;;;;;;;;;;;16.50;99.90;;;;;;5073254;28;19919;-71
2021/10/01 13:32:58;;;;;;;;;;;16.50;99.90;;;;;;5073330;28;20363;-71
2021/10/01 13:35:25;;;;;;;;;;;16.50;99.90;;;;;;5073064;28;20387;-71
2021/10/01 13:37:52;;;;;;;;;;;16.50;99.90;;;;;;5072849;28;19917;-72
2021/10/01 13:40:19;;;;;;;;;;;16.50;99.90;;;;;;5072986;28;19916;-71
2021/10/01 13:42:46;;;;;;;;;;;16.50;99.90;;;;;;5075205;28;20014;-71
2021/10/01 13:45:13;;;;;;;;;;;16.40;99.90;;;;;;5073432;28;19920;-71
2021/10/01 13:47:40;;;;;;;;;;;16.30;99.90;;;;;;5072222;28;19938;-72
2021/10/01 13:50:07;;;;;;;;;;;16.30;99.90;;;;;;5072182;28;20291;-71
2021/10/01 13:52:34;;;;;;;;;;;16.30;99.90;;;;;;5072754;28;19913;-72
2021/10/01 13:55:01;;;;;;;;;;;16.20;99.90;;;;;;5055275;28;20630;-72
2021/10/01 13:57:28;;;;;;;;;;;16.20;99.90;;;;;;5052297;28;19916;-71
2021/10/01 13:59:55;;;;;;;;;;;16.20;99.90;;;;;;5052517;28;19954;-71
2021/10/01 14:02:22;;;;;;;;;;;16.20;99.90;;;;;;5052615;28;19920;-71
2021/10/01 14:04:49;;;;;;;;;;;16.20;99.90;;;;;;5052450;28;19909;-71
2021/10/01 14:07:15;;;;;;;;;;;16.20;99.90;;;;;;5051819;28;19989;-71
2021/10/01 14:09:42;;;;;;;;;;;16.20;99.90;;;;;;5051230;28;19936;-71
2021/10/01 14:12:09;;;;;;;;;;;16.20;99.90;;;;;;5052042;28;19962;-71
2021/10/01 14:14:36;;;;;;;;;;;16.20;99.90;;;;;;5052235;28;19916;-71
2021/10/01 14:17:03;;;;;;;;;;;16.20;99.90;;;;;;5052028;28;19955;-71
2021/10/01 14:19:29;;;;;;;;;;;16.10;99.90;;;;;;5052231;28;19915;-71
2021/10/01 14:21:56;;;;;;;;;;;15.90;99.90;;;;;;5051747;28;19912;-72
2021/10/01 14:24:22;;;;;;;;;;;15.80;99.90;;;;;;5051548;28;19949;-69
2021/10/01 14:26:49;;;;;;;;;;;15.70;99.90;;;;;;5051830;28;19916;-71
2021/10/01 14:29:16;;;;;;;;;;;15.70;99.90;;;;;;5051809;28;19929;-71
2021/10/01 14:31:43;;;;;;;;;;;15.60;99.90;;;;;;5051439;28;19909;-70
2021/10/01 14:34:09;;;;;;;;;;;15.60;99.90;;;;;;5050016;28;20337;-71
2021/10/01 14:36:36;;;;;;;;;;;15.60;99.90;;;;;;5051708;28;19999;-70
2021/10/01 14:39:03;;;;;;;;;;;15.60;99.90;;;;;;5051158;28;19909;-71
2021/10/01 14:41:29;;;;;;;;;;;15.70;99.90;;;;;;5051738;28;19979;-71
2021/10/01 14:43:56;;;;;;;;;;;15.70;99.90;;;;;;5051858;28;19912;-70
2021/10/01 14:46:23;;;;;;;;;;;15.60;99.90;;;;;;5051054;28;19931;-70
2021/10/01 14:48:51;;;;;;;;;;;15.70;99.90;;;;;;5050166;28;19917;-70
2021/10/01 14:51:17;;;;;;;;;;;15.70;99.90;;;;;;5051346;28;19913;-71
2021/10/01 14:53:44;;;;;;;;;;;15.80;99.90;;;;;;5051230;28;19912;-70
2021/10/01 14:56:10;;;;;;;;;;;15.80;99.90;;;;;;5051288;28;19909;-71
2021/10/01 14:58:37;;;;;;;;;;;15.90;99.90;;;;;;5051312;28;19909;-70
2021/10/01 15:01:04;;;;;;;;;;;15.90;99.90;;;;;;5050971;28;20374;-71
2021/10/01 15:03:30;;;;;;;;;;;16.00;99.90;;;;;;5051135;28;19909;-70
2021/10/01 15:05:57;;;;;;;;;;;16.00;99.90;;;;;;5051283;28;19931;-71
2021/10/01 15:08:24;;;;;;;;;;;15.90;99.90;;;;;;5051163;28;20443;-70
2021/10/01 15:10:51;;;;;;;;;;;16.00;99.90;;;;;;5050891;28;20440;-70
2021/10/01 15:13:18;;;;;;;;;;;15.90;99.90;;;;;;5050658;28;19912;-71
2021/10/01 15:15:44;;;;;;;;;;;15.80;99.90;;;;;;5050709;28;19924;-71
2021/10/01 15:18:12;;;;;;;;;;;15.90;99.90;;;;;;5053133;28;20509;-72
2021/10/01 15:20:38;;;;;;;;;;;15.70;99.90;;;;;;5052936;28;20356;-71
2021/10/01 15:23:06;;;;;;;;;;;15.50;99.90;;;;;;5051117;28;19920;-72
2021/10/01 15:25:32;;;;;;;;;;;15.40;99.90;;;;;;5048971;28;19956;-71
2021/10/01 15:27:59;;;;;;;;;;;15.20;99.90;;;;;;5050797;28;19920;-72
2021/10/01 15:30:26;;;;;;;;;;;15.20;99.90;;;;;;5050838;28;19913;-71
2021/10/01 15:32:52;;;;;;;;;;;15.10;99.90;;;;;;5050827;28;20416;-71
2021/10/01 15:35:20;;;;;;;;;;;14.90;99.90;;;;;;5050672;28;19908;-72
2021/10/01 15:37:49;;;;;;;;;;;14.70;99.90;;;;;;5050537;28;19931;-71
2021/10/01 15:40:16;;;;;;;;;;;14.60;99.90;;;;;;5050121;28;19916;-72
2021/10/01 15:42:43;;;;;;;;;;;14.60;99.90;;;;;;5050773;28;20426;-70
2021/10/01 15:45:11;;;;;;;;;;;14.60;99.90;;;;;;5050774;28;19967;-71
2021/10/01 15:47:38;;;;;;;;;;;14.60;99.90;;;;;;5050290;28;19944;-72
2021/10/01 15:50:05;;;;;;;;;;;14.50;99.90;;;;;;5050619;28;19924;-70
2021/10/01 15:52:31;;;;;;;;;;;14.40;99.90;;;;;;5050087;28;19909;-69
2021/10/01 15:54:58;;;;;;;;;;;14.40;99.90;;;;;;5050309;28;19998;-70
2021/10/01 15:57:25;;;;;;;;;;;14.30;99.90;;;;;;5050470;28;19931;-71
2021/10/01 15:59:51;;;;;;;;;;;14.30;99.90;;;;;;5050281;28;19958;-70